Time;durP1;ratioP1;P1;durP2;ratioP2;P2;SDS_P1;SDS_P2;PMS_P1;PMS_P2;Temp;Humidity;BMP_temperature;BMP_pressure;BME280_temperature;BME280_humidity;BME280_pressure;Samples;Min_cycle;Max_cycle;Signal;HPM_P1;HPM_P2
2022/09/15 00:01:02;;;;;;;;;1.00;1.00;;;;;17.45;62.77;100692.19;4971381;28;8840;-67
2022/09/15 00:03:28;;;;;;;;;0.25;0.25;;;;;17.46;62.69;100690.28;4972036;28;8860;-66
2022/09/15 00:05:55;;;;;;;;;1.00;1.00;;;;;17.49;62.45;100697.97;4972084;28;8824;-67
2022/09/15 00:08:22;;;;;;;;;1.25;1.00;;;;;17.49;62.92;100690.63;4971877;28;9564;-66
2022/09/15 00:10:56;;;;;;;;;0.00;0.00;;;;;17.50;62.81;100684.13;4971886;28;8851;-65
2022/09/15 00:13:24;;;;;;;;;0.75;0.50;;;;;17.55;62.67;100692.38;4971893;28;8874;-67
2022/09/15 00:15:50;;;;;;;;;2.00;1.00;;;;;17.55;62.67;100691.56;4971404;28;8844;-66
2022/09/15 00:18:17;;;;;;;;;4.00;4.00;;;;;17.51;61.90;100691.22;4971249;28;8824;-67
2022/09/15 00:20:44;;;;;;;;;3.50;3.50;;;;;17.51;62.27;100693.13;4971497;28;8824;-67
2022/09/15 00:23:13;;;;;;;;;3.25;3.25;;;;;17.49;61.71;100696.06;4971226;28;8860;-67
2022/09/15 00:25:45;;;;;;;;;3.75;3.75;;;;;17.47;61.82;100700.13;4970235;28;8884;-68
2022/09/15 00:28:13;;;;;;;;;5.25;4.00;;;;;17.37;61.88;100702.63;4971219;28;8836;-67
2022/09/15 00:30:44;;;;;;;;;2.25;2.25;;;;;17.34;62.51;100701.25;4971356;28;8820;-68
2022/09/15 00:33:12;;;;;;;;;3.00;3.00;;;;;17.35;62.66;100694.72;4971401;28;8958;-67
2022/09/15 00:35:40;;;;;;;;;1.75;1.75;;;;;17.43;62.93;100709.84;4971394;28;8852;-67
2022/09/15 00:38:08;;;;;;;;;2.25;1.75;;;;;17.43;62.30;100707.13;4970965;28;8841;-66
2022/09/15 00:40:46;;;;;;;;;2.75;1.50;;;;;17.39;62.80;100700.50;4971421;28;8962;-64
2022/09/15 00:43:15;;;;;;;;;1.00;1.00;;;;;17.37;62.62;100703.47;4984059;28;8905;-67
2022/09/15 00:45:41;;;;;;;;;2.50;1.50;;;;;17.38;62.49;100698.84;4952038;28;8945;-67
2022/09/15 00:48:12;;;;;;;;;1.00;1.00;;;;;17.37;62.60;100703.47;4951912;28;8847;-67
2022/09/15 00:50:41;;;;;;;;;2.25;0.75;;;;;17.39;62.25;100705.94;4968266;28;8855;-67
2022/09/15 00:53:10;;;;;;;;;1.00;1.00;;;;;17.34;62.67;100708.56;4971257;28;8836;-67
2022/09/15 00:55:43;;;;;;;;;0.50;0.50;;;;;17.24;62.39;100715.44;4953953;28;9500;-66
2022/09/15 00:58:15;;;;;;;;;0.00;0.00;;;;;17.25;62.81;100705.41;4982983;28;8980;-68
2022/09/15 01:00:49;;;;;;;;;0.25;0.25;;;;;17.21;62.50;100715.94;4990903;28;8826;-66
2022/09/15 01:03:16;;;;;;;;;0.00;0.00;;;;;17.20;62.62;100718.91;4989399;28;8954;-67
2022/09/15 01:05:50;;;;;;;;;1.00;1.00;;;;;17.18;62.78;100713.72;4985152;28;8825;-68
2022/09/15 01:08:25;;;;;;;;;2.00;1.67;;;;;17.20;63.18;100719.72;4970385;28;9617;-67
2022/09/15 01:10:52;;;;;;;;;0.75;0.75;;;;;17.23;63.19;100713.81;4971001;28;8828;-66
2022/09/15 01:13:18;;;;;;;;;0.00;0.00;;;;;17.28;63.20;100704.91;4978542;28;8846;-67
2022/09/15 01:15:55;;;;;;;;;0.00;0.00;;;;;17.31;62.68;100715.31;4973645;28;8840;-67
2022/09/15 01:18:37;;;;;;;;;0.00;0.00;;;;;17.30;62.46;100710.97;4974563;28;8852;-67
2022/09/15 01:21:28;;;;;;;;;0.50;0.50;;;;;17.28;62.41;100710.34;4975016;28;8824;-68
2022/09/15 01:24:32;;;;;;;;;1.75;1.75;;;;;17.26;62.56;100716.06;4970926;28;8864;-67
2022/09/15 01:27:12;;;;;;;;;1.00;1.00;;;;;17.26;62.41;100724.22;4973125;28;8844;-68
2022/09/15 01:30:08;;;;;;;;;1.00;1.00;;;;;17.23;62.58;100721.16;4987009;28;8972;-67
2022/09/15 01:33:02;;;;;;;;;1.75;1.25;;;;;17.20;62.50;100722.44;4993951;28;8841;-67
2022/09/15 01:35:55;;;;;;;;;2.00;1.50;;;;;17.22;62.17;100719.50;4994040;28;9626;-67
2022/09/15 01:38:59;;;;;;;;;0.00;0.00;;;;;17.24;61.97;100720.06;4993794;28;8841;-67
2022/09/15 01:41:44;;;;;;;;;0.50;0.50;;;;;17.26;61.81;100716.06;4955306;28;8815;-65
2022/09/15 01:44:17;;;;;;;;;0.00;0.00;;;;;17.27;61.97;100716.88;4971914;28;8868;-67
2022/09/15 01:46:51;;;;;;;;;1.00;1.00;;;;;17.30;61.52;100708.25;4974226;28;8832;-67
2022/09/15 01:49:24;;;;;;;;;0.00;0.00;;;;;17.31;61.89;100709.88;4974337;28;8848;-68
2022/09/15 01:51:52;;;;;;;;;1.00;1.00;;;;;17.29;61.84;100712.81;4974291;28;8920;-68
2022/09/15 01:54:27;;;;;;;;;1.00;0.00;;;;;17.28;61.60;100713.91;4974360;28;8832;-68
2022/09/15 01:56:55;;;;;;;;;0.00;0.00;;;;;17.27;61.47;100717.69;4973475;28;8813;-68
2022/09/15 01:59:21;;;;;;;;;2.00;0.75;;;;;17.24;61.49;100710.00;4974208;28;8859;-67
2022/09/15 02:01:57;;;;;;;;;0.00;0.00;;;;;17.25;61.45;100716.28;4974000;28;8883;-68
2022/09/15 02:04:29;;;;;;;;;0.75;0.75;;;;;17.27;61.50;100716.88;4974122;28;8852;-68
2022/09/15 02:07:10;;;;;;;;;0.00;0.00;;;;;17.26;61.33;100712.50;4973798;28;8828;-67
2022/09/15 02:09:47;;;;;;;;;1.50;0.00;;;;;17.27;61.09;100716.88;4973863;28;8887;-68
2022/09/15 02:12:32;;;;;;;;;0.00;0.00;;;;;17.25;60.85;100706.22;4973868;28;8844;-67
2022/09/15 02:15:06;;;;;;;;;0.00;0.00;;;;;17.26;60.94;100704.34;4954853;28;8882;-68
2022/09/15 02:17:37;;;;;;;;;0.00;0.00;;;;;17.24;60.92;100703.75;4957177;28;8864;-68
2022/09/15 02:20:19;;;;;;;;;0.00;0.00;;;;;17.23;60.52;100711.09;4973814;28;8868;-68
2022/09/15 02:22:54;;;;;;;;;0.00;0.00;;;;;17.24;60.79;100703.75;4973410;28;9556;-68
2022/09/15 02:25:29;;;;;;;;;0.00;0.00;;;;;17.23;60.56;100702.94;4973678;28;8836;-67
2022/09/15 02:28:01;;;;;;;;;0.75;0.00;;;;;17.23;60.36;100710.25;4973254;28;8824;-66
2022/09/15 02:30:31;;;;;;;;;0.00;0.00;;;;;17.23;60.04;100711.09;4973520;28;8851;-67
2022/09/15 02:33:01;;;;;;;;;0.25;0.25;;;;;17.25;60.17;100716.28;4972481;28;9588;-68
2022/09/15 02:35:31;;;;;;;;;0.00;0.00;;;;;17.23;60.09;100705.66;4973453;28;8882;-67
2022/09/15 02:37:58;;;;;;;;;0.00;0.00;;;;;17.24;59.85;100710.00;4971932;28;9535;-67
2022/09/15 02:40:27;;;;;;;;;0.25;0.25;;;;;17.25;59.66;100719.81;4973426;28;9528;-68
2022/09/15 02:42:57;;;;;;;;;0.00;0.00;;;;;17.24;59.52;100720.91;4973423;28;8981;-67
2022/09/15 02:45:25;;;;;;;;;0.00;0.00;;;;;17.24;59.12;100715.44;4973449;28;8855;-68
2022/09/15 02:47:52;;;;;;;;;0.00;0.00;;;;;17.22;59.10;100717.59;4972934;28;9535;-68
2022/09/15 02:50:19;;;;;;;;;0.00;0.00;;;;;17.19;58.69;100719.97;4973200;28;8879;-68
2022/09/15 02:52:45;;;;;;;;;0.00;0.00;;;;;17.17;58.57;100716.66;4988133;28;8824;-68
2022/09/15 02:55:12;;;;;;;;;0.75;0.00;;;;;17.16;58.71;100725.88;4973031;28;8844;-66
2022/09/15 02:57:39;;;;;;;;;0.00;0.00;;;;;17.12;58.28;100728.25;4972725;28;8840;-66
2022/09/15 03:00:12;;;;;;;;;0.00;0.00;;;;;17.18;58.61;100729.22;4973236;28;9552;-67
2022/09/15 03:02:45;;;;;;;;;0.00;0.00;;;;;17.20;58.57;100729.78;4971894;28;8926;-67
2022/09/15 03:05:13;;;;;;;;;0.50;0.00;;;;;17.24;58.66;100733.66;4972829;28;8848;-67
2022/09/15 03:07:40;;;;;;;;;0.25;0.25;;;;;17.25;58.33;100727.97;4972784;28;8820;-68
2022/09/15 03:10:08;;;;;;;;;1.00;0.00;;;;;17.28;58.55;100729.41;4971443;28;8836;-67
2022/09/15 03:12:45;;;;;;;;;0.00;0.00;;;;;17.30;58.61;100730.00;4971629;28;8840;-68
2022/09/15 03:15:14;;;;;;;;;0.00;0.00;;;;;17.29;58.16;100731.03;4982612;28;8838;-67
2022/09/15 03:17:42;;;;;;;;;0.25;0.00;;;;;17.26;58.58;100728.84;5007062;28;8841;-67
2022/09/15 03:20:11;;;;;;;;;1.00;0.00;;;;;17.24;58.39;100733.66;4991934;28;8944;-68
2022/09/15 03:22:38;;;;;;;;;1.00;0.00;;;;;17.23;58.38;100745.63;4992089;28;8859;-67
2022/09/15 03:25:06;;;;;;;;;1.00;0.00;;;;;17.18;58.36;100737.38;4989872;28;8872;-67
2022/09/15 03:27:34;;;;;;;;;0.00;0.00;;;;;17.14;58.48;100742.47;4971212;28;9619;-68
2022/09/15 03:30:01;;;;;;;;;0.00;0.00;;;;;17.13;58.18;100732.63;4972453;28;9558;-68
2022/09/15 03:32:27;;;;;;;;;0.00;0.00;;;;;17.13;58.25;100737.25;4972557;28;8858;-68
2022/09/15 03:34:54;;;;;;;;;1.25;0.00;;;;;17.12;58.74;100743.75;4971518;28;8835;-66
2022/09/15 03:37:24;;;;;;;;;0.00;0.00;;;;;17.15;58.72;100737.84;4972257;28;8840;-67
2022/09/15 03:39:50;;;;;;;;;0.00;0.00;;;;;17.13;58.55;100734.53;4971167;28;8840;-68
2022/09/15 03:42:17;;;;;;;;;0.00;0.00;;;;;17.12;58.45;100738.31;4970759;28;10023;-68
2022/09/15 03:44:43;;;;;;;;;0.75;0.00;;;;;17.14;58.18;100734.31;4972323;28;8843;-68
2022/09/15 03:47:10;;;;;;;;;0.00;0.00;;;;;17.15;58.11;100735.13;4971705;28;9571;-66
2022/09/15 03:49:36;;;;;;;;;1.00;0.00;;;;;17.14;57.96;100736.19;4972342;28;8833;-68
2022/09/15 03:52:03;;;;;;;;;0.00;0.00;;;;;17.14;58.02;100738.91;4972173;28;8851;-67
2022/09/15 03:54:30;;;;;;;;;0.00;0.00;;;;;17.13;58.07;100742.69;4972154;28;8837;-68
2022/09/15 03:56:56;;;;;;;;;0.25;0.00;;;;;17.13;58.08;100739.97;4971687;28;8872;-66
2022/09/15 03:59:23;;;;;;;;;0.00;0.00;;;;;17.12;58.36;100738.31;4972195;28;8832;-68
2022/09/15 04:01:50;;;;;;;;;1.00;0.00;;;;;17.12;58.01;100743.75;4972257;28;8926;-67
2022/09/15 04:04:17;;;;;;;;;0.75;0.00;;;;;17.10;58.03;100737.75;4970843;28;8864;-67
2022/09/15 04:06:43;;;;;;;;;0.00;0.00;;;;;17.10;57.71;100741.28;4971724;28;9600;-68
2022/09/15 04:09:10;;;;;;;;;1.25;0.00;;;;;17.09;57.74;100739.59;4971734;28;8959;-68
2022/09/15 04:11:38;;;;;;;;;0.00;0.00;;;;;17.10;57.53;100744.00;4971553;28;8874;-67
2022/09/15 04:14:04;;;;;;;;;0.00;0.00;;;;;17.09;57.06;100738.78;4971771;28;8824;-67
2022/09/15 04:16:31;;;;;;;;;2.00;0.00;;;;;17.10;57.25;100740.47;4971416;28;8859;-67
2022/09/15 04:18:57;;;;;;;;;0.00;0.00;;;;;17.11;57.53;100750.28;4970312;28;8848;-67
2022/09/15 04:21:25;;;;;;;;;0.00;0.00;;;;;17.12;57.67;100738.31;4971960;28;8870;-68
2022/09/15 04:23:52;;;;;;;;;0.00;0.00;;;;;17.14;57.81;100741.63;4971280;28;8824;-67
2022/09/15 04:26:30;;;;;;;;;0.00;0.00;;;;;17.14;57.55;100745.19;4971497;28;8824;-67
2022/09/15 04:28:57;;;;;;;;;0.75;0.50;;;;;17.14;58.02;100739.75;4970383;28;8870;-68
2022/09/15 04:31:29;;;;;;;;;0.00;0.00;;;;;17.12;57.62;100743.75;4970166;28;9579;-67
2022/09/15 04:33:56;;;;;;;;;0.00;0.00;;;;;17.10;57.53;100745.91;4971454;28;8852;-67
2022/09/15 04:36:26;;;;;;;;;0.00;0.00;;;;;17.11;57.88;100747.56;4971173;28;8820;-67
2022/09/15 04:38:53;;;;;;;;;0.00;0.00;;;;;17.07;57.64;100744.47;4971355;28;8872;-67
2022/09/15 04:41:20;;;;;;;;;0.00;0.00;;;;;17.07;57.94;100740.94;4970365;28;8967;-66
2022/09/15 04:43:46;;;;;;;;;0.00;0.00;;;;;17.09;57.63;100739.59;4971253;28;8844;-67
2022/09/15 04:46:14;;;;;;;;;0.00;0.00;;;;;17.08;57.59;100739.88;4969734;28;9583;-68
2022/09/15 04:48:40;;;;;;;;;0.25;0.25;;;;;17.08;57.95;100742.59;4970025;28;8976;-68
2022/09/15 04:51:11;;;;;;;;;1.00;1.00;;;;;17.09;57.69;100749.66;4969978;28;8836;-68
2022/09/15 04:53:38;;;;;;;;;0.00;0.00;;;;;17.08;57.63;100750.75;4971425;28;8856;-66
2022/09/15 04:56:10;;;;;;;;;0.00;0.00;;;;;17.06;57.34;100756.44;4978971;28;8814;-68
2022/09/15 04:58:39;;;;;;;;;1.00;0.00;;;;;17.05;56.97;100757.47;4990444;28;8868;-68
2022/09/15 05:01:12;;;;;;;;;0.00;0.00;;;;;17.00;56.93;100757.38;4971472;28;8844;-67
2022/09/15 05:03:39;;;;;;;;;0.75;0.75;;;;;16.89;56.80;100747.34;4971156;28;8859;-68
2022/09/15 05:06:07;;;;;;;;;1.50;0.00;;;;;16.82;57.39;100739.31;4971165;28;8844;-67
2022/09/15 05:08:34;;;;;;;;;0.00;0.00;;;;;16.85;57.37;100738.81;4990153;28;8849;-68
2022/09/15 05:11:03;;;;;;;;;0.00;0.00;;;;;16.91;57.26;100743.31;5001892;28;8844;-67
2022/09/15 05:13:29;;;;;;;;;0.75;0.00;;;;;16.93;57.29;100745.78;4971365;28;8879;-68
2022/09/15 05:16:03;;;;;;;;;0.00;0.00;;;;;16.90;57.21;100744.41;4970947;28;9535;-68
2022/09/15 05:18:29;;;;;;;;;0.00;0.00;;;;;16.90;57.35;100735.41;4970997;28;8948;-67
2022/09/15 05:21:00;;;;;;;;;0.00;0.00;;;;;16.94;57.22;100739.31;4971151;28;8837;-68
2022/09/15 05:23:27;;;;;;;;;0.00;0.00;;;;;16.97;57.42;100736.09;4971267;28;8821;-67
2022/09/15 05:25:58;;;;;;;;;0.00;0.00;;;;;16.97;57.68;100742.34;4970927;28;8840;-68
2022/09/15 05:28:25;;;;;;;;;0.00;0.00;;;;;16.98;57.82;100745.91;4970182;28;8848;-68
2022/09/15 05:30:53;;;;;;;;;0.00;0.00;;;;;16.95;57.96;100744.50;4970945;28;8947;-67
2022/09/15 05:33:21;;;;;;;;;0.00;0.00;;;;;16.94;58.08;100748.28;4970825;28;8812;-65
2022/09/15 05:35:53;;;;;;;;;1.00;1.00;;;;;16.93;58.16;100745.78;4969594;28;8860;-68
2022/09/15 05:38:20;;;;;;;;;0.00;0.00;;;;;16.93;58.72;100745.78;4970623;28;8825;-68
2022/09/15 05:40:47;;;;;;;;;0.00;0.00;;;;;16.92;58.37;100749.59;4971723;28;8825;-68
2022/09/15 05:43:14;;;;;;;;;0.00;0.00;;;;;16.91;58.61;100748.75;4970656;28;9333;-67
2022/09/15 05:45:41;;;;;;;;;0.00;0.00;;;;;16.91;58.91;100737.06;4969415;28;8869;-68
2022/09/15 05:48:09;;;;;;;;;0.00;0.00;;;;;16.89;58.95;100737.28;4970793;28;8865;-68
2022/09/15 05:50:37;;;;;;;;;0.00;0.00;;;;;16.89;59.23;100744.63;4970808;28;8845;-67
2022/09/15 05:53:04;;;;;;;;;0.00;0.00;;;;;16.88;58.93;100738.34;4985678;28;9567;-67
2022/09/15 05:55:36;;;;;;;;;0.00;0.00;;;;;16.86;59.18;100739.69;4970776;28;8828;-68
2022/09/15 05:58:02;;;;;;;;;1.00;0.00;;;;;16.84;59.10;100744.50;4971815;28;8845;-66
2022/09/15 06:00:29;;;;;;;;;0.75;0.00;;;;;16.84;59.34;100748.03;4972747;28;8844;-67
2022/09/15 06:02:55;;;;;;;;;0.00;0.00;;;;;16.85;59.43;100751.59;4978401;28;8971;-66
2022/09/15 06:05:22;;;;;;;;;0.00;0.00;;;;;16.85;60.08;100749.69;4973743;28;8858;-67
2022/09/15 06:07:48;;;;;;;;;0.00;0.00;;;;;16.83;60.03;100767.34;4973747;28;8855;-67
2022/09/15 06:10:14;;;;;;;;;0.75;0.75;;;;;16.69;59.30;100772.97;5012559;23;8905;-67
2022/09/15 06:12:42;;;;;;;;;0.00;0.00;;;;;16.55;60.17;100777.81;4993349;28;8813;-67
2022/09/15 06:15:09;;;;;;;;;0.50;0.50;;;;;16.51;60.61;100784.78;4992762;28;8829;-67
2022/09/15 06:17:35;;;;;;;;;0.00;0.00;;;;;16.45;61.00;100784.91;4992586;28;8845;-68
2022/09/15 06:20:04;;;;;;;;;1.00;0.00;;;;;16.50;61.25;100791.28;4993057;28;8968;-67
2022/09/15 06:22:31;;;;;;;;;0.25;0.25;;;;;16.51;61.85;100795.63;4994927;28;8833;-68
2022/09/15 06:24:58;;;;;;;;;0.75;0.75;;;;;16.50;61.91;100790.44;4987450;28;8872;-68
2022/09/15 06:27:25;;;;;;;;;0.00;0.00;;;;;16.47;62.04;100793.63;4992517;28;8853;-68
2022/09/15 06:29:51;;;;;;;;;0.00;0.00;;;;;16.44;62.41;100785.94;4992943;28;8850;-68
2022/09/15 06:32:18;;;;;;;;;2.00;1.00;;;;;16.42;62.40;100785.38;4992707;28;8857;-67
2022/09/15 06:34:44;;;;;;;;;2.25;0.25;;;;;16.47;62.48;100788.19;4992020;28;8854;-68
2022/09/15 06:37:11;;;;;;;;;0.75;0.75;;;;;16.52;62.39;100791.03;5001413;28;8857;-68
2022/09/15 06:39:37;;;;;;;;;0.50;0.50;;;;;16.52;62.74;100791.03;4991609;28;8852;-68
2022/09/15 06:42:04;;;;;;;;;0.00;0.00;;;;;16.49;62.57;100789.63;4992803;28;8830;-68
2022/09/15 06:44:33;;;;;;;;;0.50;0.50;;;;;16.49;62.50;100796.97;5007714;28;8841;-68
2022/09/15 06:46:59;;;;;;;;;0.25;0.00;;;;;16.52;62.50;100799.19;5007681;28;8838;-68
2022/09/15 06:49:25;;;;;;;;;0.00;0.00;;;;;16.52;62.79;100800.00;4992624;28;8850;-68
2022/09/15 06:51:52;;;;;;;;;0.50;0.50;;;;;16.54;62.23;100802.50;5007460;28;8826;-67
2022/09/15 06:54:18;;;;;;;;;0.25;0.00;;;;;16.54;62.85;100810.66;4992777;28;8810;-66
2022/09/15 06:56:46;;;;;;;;;0.00;0.00;;;;;16.58;62.66;100814.56;4991742;28;8854;-68
2022/09/15 06:59:13;;;;;;;;;0.00;0.00;;;;;16.59;62.81;100816.22;4992633;28;8842;-67
2022/09/15 07:01:40;;;;;;;;;0.00;0.00;;;;;16.58;62.79;100814.56;4992326;28;8853;-67
2022/09/15 07:04:08;;;;;;;;;1.00;1.00;;;;;16.59;62.96;100813.50;4992919;28;8829;-66
2022/09/15 07:06:36;;;;;;;;;0.00;0.00;;;;;16.61;62.64;100811.38;4991811;28;8972;-65
2022/09/15 07:09:05;;;;;;;;;0.00;0.00;;;;;16.66;62.96;100814.22;4992370;28;8843;-66
2022/09/15 07:11:31;;;;;;;;;0.00;0.00;;;;;16.69;62.93;100815.63;4991695;28;8833;-67
2022/09/15 07:13:58;;;;;;;;;0.00;0.00;;;;;16.70;62.66;100817.28;4992721;28;9599;-68
2022/09/15 07:16:25;;;;;;;;;0.00;0.00;;;;;16.67;62.47;100826.72;4992387;28;8850;-67
2022/09/15 07:18:54;;;;;;;;;0.00;0.00;;;;;16.68;62.50;100824.84;4990811;28;8841;-68
2022/09/15 07:21:20;;;;;;;;;0.00;0.00;;;;;16.67;62.05;100824.03;4992154;28;8824;-68
2022/09/15 07:23:47;;;;;;;;;0.00;0.00;;;;;16.68;61.59;100828.38;4992034;28;8833;-67
2022/09/15 07:26:19;;;;;;;;;0.00;0.00;;;;;16.66;61.63;100825.09;4997646;28;8964;-67
2022/09/15 07:29:05;;;;;;;;;0.00;0.00;;;;;16.66;61.69;100833.25;4990495;28;8946;-68
2022/09/15 07:31:34;;;;;;;;;0.00;0.00;;;;;16.66;61.28;100829.69;4991123;28;8861;-67
2022/09/15 07:34:01;;;;;;;;;1.00;0.00;;;;;16.68;61.36;100831.09;4991813;28;8842;-67
2022/09/15 07:36:28;;;;;;;;;0.00;0.00;;;;;16.70;61.11;100837.16;4991450;28;8846;-65
2022/09/15 07:38:55;;;;;;;;;2.00;0.00;;;;;16.69;61.42;100835.50;4991438;28;9586;-67
2022/09/15 07:41:24;;;;;;;;;0.00;0.00;;;;;16.74;61.40;100838.38;4991617;28;8944;-67
2022/09/15 07:43:53;;;;;;;;;0.25;0.00;;;;;16.78;61.14;100833.28;4992235;28;8829;-68
2022/09/15 07:46:21;;;;;;;;;0.00;0.00;;;;;16.83;60.87;100836.13;4991884;28;8904;-68
2022/09/15 07:48:50;;;;;;;;;0.00;0.00;;;;;16.86;60.56;100840.28;4991308;28;8833;-68
2022/09/15 07:51:17;;;;;;;;;0.00;0.00;;;;;16.83;60.01;100840.72;4991480;28;8911;-67
2022/09/15 07:53:46;;;;;;;;;0.00;0.00;;;;;16.79;59.93;100843.09;4991447;28;9553;-67
2022/09/15 07:56:13;;;;;;;;;0.25;0.00;;;;;16.78;60.43;100846.88;4991440;28;8830;-67
2022/09/15 07:58:39;;;;;;;;;0.00;0.00;;;;;16.81;60.58;100846.38;4991494;28;8964;-67
2022/09/15 08:01:13;;;;;;;;;2.00;0.00;;;;;16.79;60.64;100846.63;4991287;28;8853;-67
2022/09/15 08:03:41;;;;;;;;;1.00;1.00;;;;;16.82;60.37;100847.25;4990395;28;8837;-67
2022/09/15 08:06:09;;;;;;;;;2.00;1.00;;;;;16.82;59.92;100847.25;4990883;28;8853;-67
2022/09/15 08:08:37;;;;;;;;;0.25;0.00;;;;;16.84;59.60;100845.09;4990343;28;8818;-68
2022/09/15 08:11:08;;;;;;;;;0.00;0.00;;;;;16.85;59.23;100858.44;5003498;28;8827;-67
2022/09/15 08:13:35;;;;;;;;;0.00;0.00;;;;;16.87;59.35;100852.78;5009369;28;8862;-67
2022/09/15 08:16:10;;;;;;;;;0.00;0.00;;;;;16.91;59.39;100853.97;4991356;28;8841;-68
2022/09/15 08:18:37;;;;;;;;;0.00;0.00;;;;;16.85;59.04;100863.06;4990828;28;8850;-67
2022/09/15 08:21:08;;;;;;;;;1.00;1.00;;;;;16.76;59.10;100865.31;4990766;28;8833;-67
2022/09/15 08:23:35;;;;;;;;;0.00;0.00;;;;;16.82;59.24;100869.81;4991154;28;8841;-67
2022/09/15 08:26:05;;;;;;;;;3.75;1.00;;;;;16.78;59.96;100874.88;4990200;28;8829;-67
2022/09/15 08:28:37;;;;;;;;;0.25;0.25;;;;;16.84;60.13;100880.44;4991249;28;8842;-67
2022/09/15 08:31:06;;;;;;;;;0.50;0.50;;;;;16.87;60.39;100875.38;4991479;28;8833;-68
2022/09/15 08:33:33;;;;;;;;;0.50;0.00;;;;;16.90;60.30;100871.38;4993471;28;9489;-67
2022/09/15 08:36:12;;;;;;;;;0.25;0.25;;;;;16.93;60.60;100870.88;5011018;28;8835;-68
2022/09/15 08:38:40;;;;;;;;;0.00;0.00;;;;;16.96;60.79;100876.66;4990985;28;8944;-66
2022/09/15 08:41:12;;;;;;;;;0.25;0.25;;;;;16.98;60.94;100882.72;4991567;28;9750;-67
2022/09/15 08:43:45;;;;;;;;;0.50;0.00;;;;;17.03;61.01;100885.53;4991399;28;8850;-67
2022/09/15 08:46:17;;;;;;;;;0.00;0.00;;;;;17.10;60.91;100890.06;4990815;28;9170;-66
2022/09/15 08:48:57;;;;;;;;;1.00;0.00;;;;;17.13;60.77;100884.94;5005964;28;8851;-67
2022/09/15 08:51:37;;;;;;;;;0.00;0.00;;;;;17.17;60.38;100893.47;5001129;28;8825;-68
2022/09/15 08:54:11;;;;;;;;;0.00;0.00;;;;;17.20;60.01;100893.00;4990833;28;8842;-67
2022/09/15 08:56:41;;;;;;;;;0.25;0.00;;;;;17.23;59.99;100882.47;4990268;28;8860;-66
2022/09/15 08:59:12;;;;;;;;;0.50;0.00;;;;;17.28;59.55;100892.63;4990694;28;8837;-67
2022/09/15 09:02:00;;;;;;;;;0.00;0.00;;;;;17.37;59.57;100888.47;4990916;28;8833;-66
2022/09/15 09:04:47;;;;;;;;;0.00;0.00;;;;;17.44;59.24;100885.66;4990789;28;8826;-68
2022/09/15 09:07:21;;;;;;;;;0.00;0.00;;;;;17.45;59.20;100885.41;4989840;28;8857;-67
2022/09/15 09:10:16;;;;;;;;;0.50;0.50;;;;;17.38;58.34;100883.88;4990349;28;8834;-66
2022/09/15 09:13:07;;;;;;;;;2.00;0.00;;;;;17.35;57.96;100890.63;4990498;28;8865;-68
2022/09/15 09:16:12;;;;;;;;;1.50;1.00;;;;;17.35;58.13;100893.34;4990286;28;8895;-67
2022/09/15 09:18:53;;;;;;;;;0.00;0.00;;;;;17.35;58.38;100906.13;4988826;28;8838;-67
2022/09/15 09:21:29;;;;;;;;;1.00;1.00;;;;;17.33;58.65;100908.25;4971112;28;8847;-67
2022/09/15 09:24:12;;;;;;;;;0.25;0.25;;;;;17.32;59.03;100903.88;4973189;28;8935;-67
2022/09/15 09:26:39;;;;;;;;;1.50;0.00;;;;;17.26;58.94;100902.94;4988938;28;8861;-67
2022/09/15 09:29:14;;;;;;;;;0.50;0.00;;;;;17.23;58.25;100904.25;4990185;28;8888;-67
2022/09/15 09:31:44;;;;;;;;;0.50;0.50;;;;;17.25;57.51;100901.25;4989360;28;8880;-68
2022/09/15 09:34:28;;;;;;;;;0.00;0.00;;;;;17.28;57.24;100898.09;4993418;28;8842;-68
2022/09/15 09:37:06;;;;;;;;;1.00;1.00;;;;;17.31;57.35;100900.34;4994140;28;8833;-67
2022/09/15 09:39:33;;;;;;;;;0.50;0.00;;;;;17.37;56.79;100904.00;4993978;28;8880;-67
2022/09/15 09:42:01;;;;;;;;;1.00;1.00;;;;;17.36;54.85;100892.28;4998671;28;9542;-67
2022/09/15 09:44:30;;;;;;;;;0.00;0.00;;;;;17.39;53.50;100899.16;5013881;28;8861;-68
2022/09/15 09:46:58;;;;;;;;;1.75;0.00;;;;;17.38;52.66;100898.31;4999143;28;8842;-66
2022/09/15 09:49:39;;;;;;;;;1.25;0.00;;;;;17.45;53.17;100885.41;4993958;28;8814;-67
2022/09/15 09:52:06;;;;;;;;;0.00;0.00;;;;;17.55;52.92;100890.25;4994110;28;8846;-67
2022/09/15 09:54:33;;;;;;;;;0.00;0.00;;;;;17.62;53.13;100884.66;5009051;28;8841;-65
2022/09/15 09:57:11;;;;;;;;;0.00;0.00;;;;;17.60;52.32;100887.63;4992147;28;8896;-65
2022/09/15 09:59:46;;;;;;;;;1.00;0.00;;;;;17.64;51.97;100899.69;4993079;28;8845;-67
2022/09/15 10:02:16;;;;;;;;;0.00;0.00;;;;;17.62;50.48;100890.94;4994010;28;8854;-68
2022/09/15 10:04:47;;;;;;;;;0.25;0.00;;;;;17.64;50.33;100888.81;4996648;28;8817;-67
2022/09/15 10:07:17;;;;;;;;;0.00;0.00;;;;;17.64;49.87;100894.25;4996910;28;8863;-67
2022/09/15 10:09:59;;;;;;;;;0.00;0.00;;;;;17.68;49.73;100898.16;4997801;28;8852;-66
2022/09/15 10:12:37;;;;;;;;;0.00;0.00;;;;;17.64;49.69;100899.69;4997096;28;8848;-67
2022/09/15 10:15:07;;;;;;;;;0.25;0.25;;;;;17.62;50.53;100901.81;4995191;28;8842;-66
2022/09/15 10:17:40;;;;;;;;;0.00;0.00;;;;;17.60;50.82;100892.25;4996230;28;8844;-66
2022/09/15 10:20:34;;;;;;;;;0.75;0.75;;;;;17.63;50.89;100895.34;4996684;28;8862;-66
2022/09/15 10:23:21;;;;;;;;;0.25;0.00;;;;;17.69;50.41;100885.38;4996503;28;8900;-67
2022/09/15 10:25:48;;;;;;;;;1.00;0.00;;;;;17.72;50.81;100880.28;4996162;28;8892;-67
2022/09/15 10:28:27;;;;;;;;;0.00;0.00;;;;;17.74;51.29;100878.19;5001735;28;8850;-66
2022/09/15 10:31:14;;;;;;;;;0.25;0.25;;;;;17.71;51.57;100892.22;5006935;28;9549;-65
2022/09/15 10:33:46;;;;;;;;;1.00;0.00;;;;;17.70;50.57;100882.41;4996105;28;8830;-66
2022/09/15 10:36:16;;;;;;;;;0.00;0.00;;;;;17.74;50.20;100886.34;4995928;28;8858;-67
2022/09/15 10:38:46;;;;;;;;;0.00;0.00;;;;;17.82;49.99;100887.84;4995672;28;8861;-68
2022/09/15 10:41:27;;;;;;;;;0.00;0.00;;;;;17.77;48.09;100894.00;5003337;28;9510;-66
2022/09/15 10:44:18;;;;;;;;;0.00;0.00;;;;;17.74;46.79;100894.50;4992241;28;8838;-67
2022/09/15 10:46:56;;;;;;;;;0.00;0.00;;;;;17.74;46.21;100896.34;4962008;28;8865;-68
2022/09/15 10:49:53;;;;;;;;;0.00;0.00;;;;;17.70;44.76;100890.59;5011298;28;8868;-67
2022/09/15 10:52:20;;;;;;;;;0.00;0.00;;;;;17.78;45.34;100881.22;4996075;28;8856;-67
2022/09/15 10:55:19;;;;;;;;;0.00;0.00;;;;;17.89;45.92;100877.63;5010447;28;8842;-68
2022/09/15 10:58:30;;;;;;;;;0.00;0.00;;;;;18.08;45.91;100878.28;5013911;28;9075;-68
2022/09/15 11:01:28;;;;;;;;;0.00;0.00;;;;;18.22;46.08;100882.38;4983810;28;8970;-67
2022/09/15 11:04:01;;;;;;;;;0.00;0.00;;;;;18.25;45.05;100879.16;4988186;28;8845;-67
2022/09/15 11:06:56;;;;;;;;;0.00;0.00;;;;;18.28;45.24;100873.22;4995059;28;8875;-66
2022/09/15 11:09:30;;;;;;;;;0.00;0.00;;;;;18.35;44.57;100874.97;5008894;28;8828;-66
2022/09/15 11:12:12;;;;;;;;;0.00;0.00;;;;;18.43;44.69;100874.56;5015258;28;8925;-66
2022/09/15 11:14:58;;;;;;;;;0.00;0.00;;;;;18.52;44.45;100884.00;4976500;28;8836;-66
2022/09/15 11:17:44;;;;;;;;;0.00;0.00;;;;;18.63;44.63;100874.91;4976092;28;8836;-66
2022/09/15 11:20:40;;;;;;;;;0.00;0.00;;;;;18.56;45.36;100881.63;4985246;28;8870;-66
2022/09/15 11:23:28;;;;;;;;;0.00;0.00;;;;;18.52;46.17;100882.09;4988695;28;8841;-66
2022/09/15 11:26:06;;;;;;;;;0.00;0.00;;;;;18.47;46.74;100883.91;4994668;28;8858;-67
2022/09/15 11:29:05;;;;;;;;;0.00;0.00;;;;;18.47;47.13;100875.72;4995810;28;9545;-66
2022/09/15 11:31:41;;;;;;;;;0.00;0.00;;;;;18.50;47.23;100888.88;4992421;28;9599;-66
2022/09/15 11:34:18;;;;;;;;;0.00;0.00;;;;;18.43;46.46;100885.47;5010791;28;8927;-66
2022/09/15 11:36:59;;;;;;;;;0.00;0.00;;;;;18.32;47.29;100886.38;4994815;28;8849;-67
2022/09/15 11:39:34;;;;;;;;;0.00;0.00;;;;;18.28;48.50;100894.22;4992300;28;8866;-67
2022/09/15 11:42:05;;;;;;;;;0.00;0.00;;;;;18.34;48.61;100895.13;4993521;28;8854;-66
2022/09/15 11:44:41;;;;;;;;;0.00;0.00;;;;;18.41;48.08;100885.72;4995249;28;8972;-67
2022/09/15 11:47:37;;;;;;;;;0.00;0.00;;;;;18.55;48.10;100897.13;4994596;28;8892;-67
2022/09/15 11:50:09;;;;;;;;;1.00;0.00;;;;;18.60;47.36;100894.50;4995115;28;8861;-66
2022/09/15 11:52:54;;;;;;;;;0.00;0.00;;;;;18.56;47.56;100896.06;4995368;28;8869;-66
2022/09/15 11:55:46;;;;;;;;;1.00;0.00;;;;;18.50;49.08;100902.50;4992957;28;8828;-66
2022/09/15 11:58:33;;;;;;;;;0.00;0.00;;;;;18.42;51.08;100913.78;4992718;28;8896;-66